Andice, TX

4:11 PM CST on December 07, 2016 (GMT -0600)
Branch Creek Trail Estates | | Change Station
Active Advisory: Wind Advisory

Elev 1047 ft 30.75 °N, 97.89 °W | Updated 16 seconds ago

Overcast
Overcast
56.7 °F
Feels Like 56.7 °F
N
1.0
Wind Variable Wind from NE

Today
High -- | Low -- °F
--% Chance of Precip.
Yesterday
High -- | Low -- °F
Precip. -- in
Pressure 30.05 in
Visibility 10.0 miles
Clouds Few 1700 ft
Overcast 2400 ft
Dew Point 50 °F
Humidity 78%
Rainfall 0.00 in
Snow Depth Not available.
7:16 AM 5:29 PM
First Quarter, 56% visible
METAR KGTU 072150Z 00000KT 10SM FEW017 OVC024 13/08 A3005
Pressure 30.05 in
Visibility 10.0 miles
Clouds Few 1700 ft
Overcast 2400 ft
Dew Point 50 °F
Humidity 78%
Rainfall 0.00 in
Snow Depth Not available.
7:16 AM 5:29 PM
First Quarter, 56% visible
METAR KGTU 072150Z 00000KT 10SM FEW017 OVC024 13/08 A3005

10-Day Weather Forecast

Almanac

Astronomy

Dec. 07, 2016 Rise Set
Actual Time
Civil Twilight
Nautical Twilight
Astronomical Twilight
Moon
Length of Visible Light
Length of Day
Tomorrow will be .
, % of the Moon is Illuminated

Today's Extremes

State Highs State Lows

Community

WunderPhotos

Upload Photos

1,956,209 photos uploaded!

WunderBlog® & News

Nearby

Air Quality

  Air Quality AQ Index Pollutant
Not available.

Snow Depth

Station Depth Elevation

Earthquake Activity

City Distance Mag. Time & Date
Minimum magnitude displayed is 2.5.

Coastal Water Temperatures

Place Temperature

Stations

Nearby Weather Stations

Station Location Temp. Windchill Dew Point Humidity Wind Precip. Elev Updated Type
                   

Watches & Warnings

Wind Advisory
Issued: 2:45 PM CST Dec. 7, 2016 – National Weather Service

... Wind Advisory in effect from 6 am to 4 PM CST Thursday...

The National Weather Service in Austin/San Antonio has issued a
Wind Advisory... which is in effect from 6 am to 4 PM CST
Thursday.

* Timing... Thursday morning through Thursday afternoon.

* Winds... north winds sustained 20 to 25 mph with gusts to around
35 mph.

* Impacts... winds this strong can make driving difficult...
especially for high profile vehicles. Use extra caution. In
addition... lightweight objects such as lawn furniture may
become airborne. Take action to secure these items.

Precautionary/preparedness actions...

A Wind Advisory means that winds of 35 mph are expected. Winds
this strong can make driving difficult... especially for high
profile vehicles. Use extra caution.